sensor_id;sensor_type;location;lat;lon;timestamp;P1;P2;P0
57373;PMS7003;43964;53.890;25.340;2022-07-17T00:00:36;0;0;0
57373;PMS7003;43964;53.890;25.340;2022-07-17T00:05:36;0.4;0.4;0.2
57373;PMS7003;43964;53.890;25.340;2022-07-17T00:10:37;0.2;0.2;0.2
57373;PMS7003;43964;53.890;25.340;2022-07-17T00:15:36;0.6;0.4;0.2
57373;PMS7003;43964;53.890;25.340;2022-07-17T00:20:36;0.2;0.2;0
57373;PMS7003;43964;53.890;25.340;2022-07-17T00:25:36;0.2;0.2;0
57373;PMS7003;43964;53.890;25.340;2022-07-17T00:30:36;0.6;0.6;0.4
57373;PMS7003;43964;53.890;25.340;2022-07-17T00:35:36;0.4;0.4;0
57373;PMS7003;43964;53.890;25.340;2022-07-17T00:40:36;0.8;0.8;0.2
57373;PMS7003;43964;53.890;25.340;2022-07-17T00:45:36;0.5;0.5;0
57373;PMS7003;43964;53.890;25.340;2022-07-17T00:50:38;1;1;0.5
57373;PMS7003;43964;53.890;25.340;2022-07-17T00:55:36;0.8;0.8;0.6
57373;PMS7003;43964;53.890;25.340;2022-07-17T01:00:36;1.2;1;0.8
57373;PMS7003;43964;53.890;25.340;2022-07-17T01:05:36;1.2;1;1
57373;PMS7003;43964;53.890;25.340;2022-07-17T01:10:36;0.8;0.8;0.8
57373;PMS7003;43964;53.890;25.340;2022-07-17T01:15:37;1.6;1.6;1.2
57373;PMS7003;43964;53.890;25.340;2022-07-17T01:20:36;2.2;2;1.2
57373;PMS7003;43964;53.890;25.340;2022-07-17T01:25:36;1.8;1.6;1
57373;PMS7003;43964;53.890;25.340;2022-07-17T01:30:36;1;1;0.3
57373;PMS7003;43964;53.890;25.340;2022-07-17T01:35:36;1.8;1.6;1
57373;PMS7003;43964;53.890;25.340;2022-07-17T01:40:36;1.8;1.8;1.2
57373;PMS7003;43964;53.890;25.340;2022-07-17T01:45:36;1.2;1.2;1
57373;PMS7003;43964;53.890;25.340;2022-07-17T01:50:36;1.8;1.4;1
57373;PMS7003;43964;53.890;25.340;2022-07-17T01:55:36;1.8;1.8;1.3
57373;PMS7003;43964;53.890;25.340;2022-07-17T02:00:36;2.4;2.2;1.6
57373;PMS7003;43964;53.890;25.340;2022-07-17T02:05:36;1.8;1.8;1.2
57373;PMS7003;43964;53.890;25.340;2022-07-17T02:10:36;1.8;1.8;1.6
57373;PMS7003;43964;53.890;25.340;2022-07-17T02:15:36;1.8;1.4;1.2
57373;PMS7003;43964;53.890;25.340;2022-07-17T02:20:36;1.8;1.6;1.2
57373;PMS7003;43964;53.890;25.340;2022-07-17T02:25:36;1.6;1.6;1.2
57373;PMS7003;43964;53.890;25.340;2022-07-17T02:30:36;1.5;1.3;1
57373;PMS7003;43964;53.890;25.340;2022-07-17T02:35:36;1.6;1.6;1
57373;PMS7003;43964;53.890;25.340;2022-07-17T02:40:36;1.8;1.8;1.6
57373;PMS7003;43964;53.890;25.340;2022-07-17T02:45:36;1.6;1.6;1
57373;PMS7003;43964;53.890;25.340;2022-07-17T02:50:36;1.6;1.6;1.2
57373;PMS7003;43964;53.890;25.340;2022-07-17T02:55:36;1.6;1.6;1.2
57373;PMS7003;43964;53.890;25.340;2022-07-17T03:00:36;2;1.8;1.4
57373;PMS7003;43964;53.890;25.340;2022-07-17T03:05:36;2.2;2;1.6
57373;PMS7003;43964;53.890;25.340;2022-07-17T03:10:36;1.4;1.4;1
57373;PMS7003;43964;53.890;25.340;2022-07-17T03:15:36;2.4;2;1.8
57373;PMS7003;43964;53.890;25.340;2022-07-17T03:20:36;1.4;1.4;1
57373;PMS7003;43964;53.890;25.340;2022-07-17T03:25:36;2;1.6;1.2
57373;PMS7003;43964;53.890;25.340;2022-07-17T03:30:36;2.3;2.3;1.5
57373;PMS7003;43964;53.890;25.340;2022-07-17T03:35:36;2.6;2.4;1.4
57373;PMS7003;43964;53.890;25.340;2022-07-17T03:40:36;2.6;2.6;1.4
57373;PMS7003;43964;53.890;25.340;2022-07-17T03:45:36;1.2;1.2;1.2
57373;PMS7003;43964;53.890;25.340;2022-07-17T03:50:36;2.2;1.8;1.6
57373;PMS7003;43964;53.890;25.340;2022-07-17T03:55:36;1;1;0.8
57373;PMS7003;43964;53.890;25.340;2022-07-17T04:00:36;2.2;2;1.6
57373;PMS7003;43964;53.890;25.340;2022-07-17T04:05:36;1.2;1.2;1.2
57373;PMS7003;43964;53.890;25.340;2022-07-17T04:10:36;1.2;1.2;0.8
57373;PMS7003;43964;53.890;25.340;2022-07-17T04:15:36;1.2;1;0.6
57373;PMS7003;43964;53.890;25.340;2022-07-17T04:20:36;0.5;0.5;0.5
57373;PMS7003;43964;53.890;25.340;2022-07-17T04:25:36;1;1;0.3
57373;PMS7003;43964;53.890;25.340;2022-07-17T04:30:36;0.8;0.8;0.6
57373;PMS7003;43964;53.890;25.340;2022-07-17T04:35:36;0.6;0.6;0.6
57373;PMS7003;43964;53.890;25.340;2022-07-17T04:40:36;0.4;0.4;0.2
57373;PMS7003;43964;53.890;25.340;2022-07-17T04:45:36;0.4;0.4;0.2
57373;PMS7003;43964;53.890;25.340;2022-07-17T04:50:36;0.4;0.4;0.2
57373;PMS7003;43964;53.890;25.340;2022-07-17T04:55:36;1.3;0.7;0.3
57373;PMS7003;43964;53.890;25.340;2022-07-17T05:00:36;1;0.8;0.6
57373;PMS7003;43964;53.890;25.340;2022-07-17T05:05:36;0.2;0.2;0
57373;PMS7003;43964;53.890;25.340;2022-07-17T05:10:36;0.6;0.6;0.2
57373;PMS7003;43964;53.890;25.340;2022-07-17T05:15:36;0.2;0.2;0.2
57373;PMS7003;43964;53.890;25.340;2022-07-17T05:20:36;1.3;0.5;0.3
57373;PMS7003;43964;53.890;25.340;2022-07-17T05:25:36;1;1;0.8
57373;PMS7003;43964;53.890;25.340;2022-07-17T05:30:36;1;0.5;0
57373;PMS7003;43964;53.890;25.340;2022-07-17T05:35:36;1;1;1
57373;PMS7003;43964;53.890;25.340;2022-07-17T05:40:36;1.5;1.5;1
57373;PMS7003;43964;53.890;25.340;2022-07-17T05:45:36;1.5;1.5;1
57373;PMS7003;43964;53.890;25.340;2022-07-17T05:50:36;0.8;0.8;0.6
57373;PMS7003;43964;53.890;25.340;2022-07-17T05:55:36;1.4;1.4;0.8
57373;PMS7003;43964;53.890;25.340;2022-07-17T06:00:36;1.6;1.6;1
57373;PMS7003;43964;53.890;25.340;2022-07-17T06:05:36;2.3;1.5;1.3
57373;PMS7003;43964;53.890;25.340;2022-07-17T06:10:36;0.7;0.3;0
57373;PMS7003;43964;53.890;25.340;2022-07-17T06:15:36;0.7;0.7;0.3
57373;PMS7003;43964;53.890;25.340;2022-07-17T06:20:36;0;0;0
57373;PMS7003;43964;53.890;25.340;2022-07-17T06:25:36;0;0;0
57373;PMS7003;43964;53.890;25.340;2022-07-17T06:30:36;0;0;0
57373;PMS7003;43964;53.890;25.340;2022-07-17T06:35:36;0.3;0.3;0
57373;PMS7003;43964;53.890;25.340;2022-07-17T06:40:36;0.3;0.3;0
57373;PMS7003;43964;53.890;25.340;2022-07-17T06:45:36;0;0;0
57373;PMS7003;43964;53.890;25.340;2022-07-17T06:50:36;0;0;0
57373;PMS7003;43964;53.890;25.340;2022-07-17T06:55:36;2;1;0.7
57373;PMS7003;43964;53.890;25.340;2022-07-17T07:00:37;0.2;0.2;0.2
57373;PMS7003;43964;53.890;25.340;2022-07-17T07:05:36;0;0;0
57373;PMS7003;43964;53.890;25.340;2022-07-17T07:10:36;1;1;1
57373;PMS7003;43964;53.890;25.340;2022-07-17T07:15:36;0;0;0
57373;PMS7003;43964;53.890;25.340;2022-07-17T07:20:36;1.3;1.3;0.8
57373;PMS7003;43964;53.890;25.340;2022-07-17T07:25:36;0.5;0.5;0.5
57373;PMS7003;43964;53.890;25.340;2022-07-17T07:30:36;0;0;0
57373;PMS7003;43964;53.890;25.340;2022-07-17T07:35:36;0;0;0
57373;PMS7003;43964;53.890;25.340;2022-07-17T07:40:36;0.5;0.5;0.3
57373;PMS7003;43964;53.890;25.340;2022-07-17T07:45:36;0.3;0.3;0.3
57373;PMS7003;43964;53.890;25.340;2022-07-17T07:50:36;0.5;0.5;0
57373;PMS7003;43964;53.890;25.340;2022-07-17T07:55:36;0.3;0.3;0
57373;PMS7003;43964;53.890;25.340;2022-07-17T08:00:36;1;1;0
57373;PMS7003;43964;53.890;25.340;2022-07-17T08:05:36;1;0.7;0.3
57373;PMS7003;43964;53.890;25.340;2022-07-17T08:10:36;0.7;0.7;0.3
57373;PMS7003;43964;53.890;25.340;2022-07-17T08:15:36;0.2;0.2;0.2
57373;PMS7003;43964;53.890;25.340;2022-07-17T08:20:36;0.3;0.3;0
57373;PMS7003;43964;53.890;25.340;2022-07-17T08:25:36;0.3;0.3;0
57373;PMS7003;43964;53.890;25.340;2022-07-17T08:30:36;0.5;0.5;0
57373;PMS7003;43964;53.890;25.340;2022-07-17T08:35:36;0;0;0
57373;PMS7003;43964;53.890;25.340;2022-07-17T08:40:36;0;0;0
57373;PMS7003;43964;53.890;25.340;2022-07-17T08:45:37;0.2;0.2;0
57373;PMS7003;43964;53.890;25.340;2022-07-17T08:50:36;0.2;0.2;0
57373;PMS7003;43964;53.890;25.340;2022-07-17T08:55:36;0;0;0
57373;PMS7003;43964;53.890;25.340;2022-07-17T09:00:36;0;0;0
57373;PMS7003;43964;53.890;25.340;2022-07-17T09:05:37;0;0;0
57373;PMS7003;43964;53.890;25.340;2022-07-17T09:10:37;0;0;0
57373;PMS7003;43964;53.890;25.340;2022-07-17T09:15:36;1;1;1
57373;PMS7003;43964;53.890;25.340;2022-07-17T09:20:38;1;1;1
57373;PMS7003;43964;53.890;25.340;2022-07-17T09:25:38;1;1;1
57373;PMS7003;43964;53.890;25.340;2022-07-17T09:30:37;2;1;1
57373;PMS7003;43964;53.890;25.340;2022-07-17T09:35:43;1;1;1
57373;PMS7003;43964;53.890;25.340;2022-07-17T09:40:36;1;1;1
57373;PMS7003;43964;53.890;25.340;2022-07-17T09:45:36;0;0;0
57373;PMS7003;43964;53.890;25.340;2022-07-17T09:50:36;0;0;0
57373;PMS7003;43964;53.890;25.340;2022-07-17T09:55:36;0;0;0
57373;PMS7003;43964;53.890;25.340;2022-07-17T10:00:36;0;0;0
57373;PMS7003;43964;53.890;25.340;2022-07-17T10:05:36;1;1;1
57373;PMS7003;43964;53.890;25.340;2022-07-17T10:10:36;1;1;1
57373;PMS7003;43964;53.890;25.340;2022-07-17T10:15:36;1;1;1
57373;PMS7003;43964;53.890;25.340;2022-07-17T10:20:36;0;0;0
57373;PMS7003;43964;53.890;25.340;2022-07-17T10:25:36;0;0;0
57373;PMS7003;43964;53.890;25.340;2022-07-17T10:30:40;0;0;0
57373;PMS7003;43964;53.890;25.340;2022-07-17T10:35:46;2;2;2
57373;PMS7003;43964;53.890;25.340;2022-07-17T10:40:36;1;1;1
57373;PMS7003;43964;53.890;25.340;2022-07-17T10:45:37;1;1;1
57373;PMS7003;43964;53.890;25.340;2022-07-17T10:50:38;1;1;1
57373;PMS7003;43964;53.890;25.340;2022-07-17T10:55:37;0;0;0
57373;PMS7003;43964;53.890;25.340;2022-07-17T11:00:36;0;0;0
57373;PMS7003;43964;53.890;25.340;2022-07-17T11:05:36;0;0;0
57373;PMS7003;43964;53.890;25.340;2022-07-17T11:10:36;0;0;0
57373;PMS7003;43964;53.890;25.340;2022-07-17T11:15:38;0;0;0
57373;PMS7003;43964;53.890;25.340;2022-07-17T11:20:45;4.5;4.5;3
57373;PMS7003;43964;53.890;25.340;2022-07-17T11:25:36;4.5;4.5;3
57373;PMS7003;43964;53.890;25.340;2022-07-17T11:30:36;4.5;4.5;3
57373;PMS7003;43964;53.890;25.340;2022-07-17T11:35:36;4.5;4.5;3.5
57373;PMS7003;43964;53.890;25.340;2022-07-17T11:40:44;4.5;4.5;3.5
57373;PMS7003;43964;53.890;25.340;2022-07-17T11:45:36;0.5;0.5;0
57373;PMS7003;43964;53.890;25.340;2022-07-17T11:50:36;1.3;1.3;1
57373;PMS7003;43964;53.890;25.340;2022-07-17T11:55:36;2.3;2.3;2
57373;PMS7003;43964;53.890;25.340;2022-07-17T12:00:36;2.3;2.3;2
57373;PMS7003;43964;53.890;25.340;2022-07-17T12:05:36;2.3;2.3;2
57373;PMS7003;43964;53.890;25.340;2022-07-17T12:10:36;0;0;0
57373;PMS7003;43964;53.890;25.340;2022-07-17T12:15:39;0;0;0
57373;PMS7003;43964;53.890;25.340;2022-07-17T12:20:39;0;0;0
57373;PMS7003;43964;53.890;25.340;2022-07-17T12:25:36;0;0;0
57373;PMS7003;43964;53.890;25.340;2022-07-17T12:30:36;0;0;0
57373;PMS7003;43964;53.890;25.340;2022-07-17T12:35:36;1;0;0
57373;PMS7003;43964;53.890;25.340;2022-07-17T12:40:36;1;0;0
57373;PMS7003;43964;53.890;25.340;2022-07-17T12:45:36;1;0;0
57373;PMS7003;43964;53.890;25.340;2022-07-17T12:50:37;0;0;0
57373;PMS7003;43964;53.890;25.340;2022-07-17T12:55:36;0;0;0
57373;PMS7003;43964;53.890;25.340;2022-07-17T13:00:36;0;0;0
57373;PMS7003;43964;53.890;25.340;2022-07-17T13:05:36;0;0;0
57373;PMS7003;43964;53.890;25.340;2022-07-17T13:10:36;0;0;0
57373;PMS7003;43964;53.890;25.340;2022-07-17T13:15:36;0;0;0
57373;PMS7003;43964;53.890;25.340;2022-07-17T13:20:36;0;0;0
57373;PMS7003;43964;53.890;25.340;2022-07-17T13:25:36;0;0;0
57373;PMS7003;43964;53.890;25.340;2022-07-17T13:30:36;0;0;0
57373;PMS7003;43964;53.890;25.340;2022-07-17T13:35:36;0;0;0
57373;PMS7003;43964;53.890;25.340;2022-07-17T13:40:36;0;0;0
57373;PMS7003;43964;53.890;25.340;2022-07-17T13:45:36;0;0;0
57373;PMS7003;43964;53.890;25.340;2022-07-17T13:50:36;0;0;0
57373;PMS7003;43964;53.890;25.340;2022-07-17T13:55:36;0;0;0
57373;PMS7003;43964;53.890;25.340;2022-07-17T14:00:36;0;0;0
57373;PMS7003;43964;53.890;25.340;2022-07-17T14:05:36;0;0;0
57373;PMS7003;43964;53.890;25.340;2022-07-17T14:10:36;0;0;0
57373;PMS7003;43964;53.890;25.340;2022-07-17T14:15:36;0;0;0
57373;PMS7003;43964;53.890;25.340;2022-07-17T14:20:36;0;0;0
57373;PMS7003;43964;53.890;25.340;2022-07-17T14:25:36;0;0;0
57373;PMS7003;43964;53.890;25.340;2022-07-17T14:30:36;0;0;0
57373;PMS7003;43964;53.890;25.340;2022-07-17T14:35:36;0;0;0
57373;PMS7003;43964;53.890;25.340;2022-07-17T14:40:36;0;0;0
57373;PMS7003;43964;53.890;25.340;2022-07-17T14:45:36;0;0;0
57373;PMS7003;43964;53.890;25.340;2022-07-17T14:50:36;0;0;0
57373;PMS7003;43964;53.890;25.340;2022-07-17T14:55:36;0;0;0
57373;PMS7003;43964;53.890;25.340;2022-07-17T15:00:36;0;0;0
57373;PMS7003;43964;53.890;25.340;2022-07-17T15:05:36;0;0;0
57373;PMS7003;43964;53.890;25.340;2022-07-17T15:10:36;0;0;0
57373;PMS7003;43964;53.890;25.340;2022-07-17T15:15:36;0;0;0
57373;PMS7003;43964;53.890;25.340;2022-07-17T15:20:36;0;0;0
57373;PMS7003;43964;53.890;25.340;2022-07-17T15:25:36;0;0;0
57373;PMS7003;43964;53.890;25.340;2022-07-17T15:30:36;0;0;0
57373;PMS7003;43964;53.890;25.340;2022-07-17T15:35:36;0;0;0
57373;PMS7003;43964;53.890;25.340;2022-07-17T15:40:36;0;0;0
57373;PMS7003;43964;53.890;25.340;2022-07-17T15:45:36;0;0;0
57373;PMS7003;43964;53.890;25.340;2022-07-17T15:50:36;0;0;0
57373;PMS7003;43964;53.890;25.340;2022-07-17T15:55:36;0;0;0
57373;PMS7003;43964;53.890;25.340;2022-07-17T16:00:36;0;0;0
57373;PMS7003;43964;53.890;25.340;2022-07-17T16:05:36;0;0;0
57373;PMS7003;43964;53.890;25.340;2022-07-17T16:10:36;0;0;0
57373;PMS7003;43964;53.890;25.340;2022-07-17T16:15:36;0;0;0
57373;PMS7003;43964;53.890;25.340;2022-07-17T16:20:36;0;0;0
57373;PMS7003;43964;53.890;25.340;2022-07-17T16:25:36;0;0;0
57373;PMS7003;43964;53.890;25.340;2022-07-17T16:30:36;0;0;0
57373;PMS7003;43964;53.890;25.340;2022-07-17T16:35:36;0;0;0
57373;PMS7003;43964;53.890;25.340;2022-07-17T16:40:36;0;0;0
57373;PMS7003;43964;53.890;25.340;2022-07-17T16:45:36;0;0;0
57373;PMS7003;43964;53.890;25.340;2022-07-17T16:50:36;0;0;0
57373;PMS7003;43964;53.890;25.340;2022-07-17T16:55:36;0;0;0
57373;PMS7003;43964;53.890;25.340;2022-07-17T17:00:36;0;0;0
57373;PMS7003;43964;53.890;25.340;2022-07-17T17:05:36;0;0;0
57373;PMS7003;43964;53.890;25.340;2022-07-17T17:10:36;0;0;0
57373;PMS7003;43964;53.890;25.340;2022-07-17T17:15:36;0;0;0
57373;PMS7003;43964;53.890;25.340;2022-07-17T17:20:36;0;0;0
57373;PMS7003;43964;53.890;25.340;2022-07-17T17:25:36;0;0;0
57373;PMS7003;43964;53.890;25.340;2022-07-17T17:30:36;0;0;0
57373;PMS7003;43964;53.890;25.340;2022-07-17T17:35:36;0;0;0
57373;PMS7003;43964;53.890;25.340;2022-07-17T17:40:36;0;0;0
57373;PMS7003;43964;53.890;25.340;2022-07-17T17:45:36;0;0;0
57373;PMS7003;43964;53.890;25.340;2022-07-17T17:50:36;0;0;0
57373;PMS7003;43964;53.890;25.340;2022-07-17T17:55:36;0;0;0
57373;PMS7003;43964;53.890;25.340;2022-07-17T18:00:36;0;0;0
57373;PMS7003;43964;53.890;25.340;2022-07-17T18:05:36;0;0;0
57373;PMS7003;43964;53.890;25.340;2022-07-17T18:10:36;0;0;0
57373;PMS7003;43964;53.890;25.340;2022-07-17T18:15:36;0;0;0
57373;PMS7003;43964;53.890;25.340;2022-07-17T18:20:36;0;0;0
57373;PMS7003;43964;53.890;25.340;2022-07-17T18:25:36;0;0;0
57373;PMS7003;43964;53.890;25.340;2022-07-17T18:30:36;0;0;0
57373;PMS7003;43964;53.890;25.340;2022-07-17T18:35:36;0;0;0
57373;PMS7003;43964;53.890;25.340;2022-07-17T18:40:37;0;0;0
57373;PMS7003;43964;53.890;25.340;2022-07-17T18:45:36;0;0;0
57373;PMS7003;43964;53.890;25.340;2022-07-17T18:50:36;0;0;0
57373;PMS7003;43964;53.890;25.340;2022-07-17T18:55:36;0;0;0
57373;PMS7003;43964;53.890;25.340;2022-07-17T19:00:36;0;0;0
57373;PMS7003;43964;53.890;25.340;2022-07-17T19:05:36;0;0;0
57373;PMS7003;43964;53.890;25.340;2022-07-17T19:10:36;0;0;0
57373;PMS7003;43964;53.890;25.340;2022-07-17T19:15:36;0;0;0
57373;PMS7003;43964;53.890;25.340;2022-07-17T19:20:36;1;0.8;0.6
57373;PMS7003;43964;53.890;25.340;2022-07-17T19:25:36;1.4;1.2;0.6
57373;PMS7003;43964;53.890;25.340;2022-07-17T19:30:36;1.4;1.4;1
57373;PMS7003;43964;53.890;25.340;2022-07-17T19:35:36;1.6;1.2;0.8
57373;PMS7003;43964;53.890;25.340;2022-07-17T19:40:36;1.4;1.4;1.4
57373;PMS7003;43964;53.890;25.340;2022-07-17T19:45:36;2.6;1.8;1.4
57373;PMS7003;43964;53.890;25.340;2022-07-17T19:50:36;1.2;1;0.8
57373;PMS7003;43964;53.890;25.340;2022-07-17T19:55:36;1;0.8;0.8
57373;PMS7003;43964;53.890;25.340;2022-07-17T20:00:36;0.6;0.6;0.6
57373;PMS7003;43964;53.890;25.340;2022-07-17T20:05:36;1.2;0.8;0.8
57373;PMS7003;43964;53.890;25.340;2022-07-17T20:10:36;0.5;0.5;0.3
57373;PMS7003;43964;53.890;25.340;2022-07-17T20:15:36;0.8;0.8;0.6
57373;PMS7003;43964;53.890;25.340;2022-07-17T20:20:36;1.2;1;0.4
57373;PMS7003;43964;53.890;25.340;2022-07-17T20:25:36;1.8;1.6;1
57373;PMS7003;43964;53.890;25.340;2022-07-17T20:30:36;2;2;1.2
57373;PMS7003;43964;53.890;25.340;2022-07-17T20:35:36;2.3;2;1.5
57373;PMS7003;43964;53.890;25.340;2022-07-17T20:40:36;2;1.4;1
57373;PMS7003;43964;53.890;25.340;2022-07-17T20:45:36;2;1.7;1.3
57373;PMS7003;43964;53.890;25.340;2022-07-17T20:50:36;0.3;0.3;0.3
57373;PMS7003;43964;53.890;25.340;2022-07-17T20:55:36;0.4;0;0
57373;PMS7003;43964;53.890;25.340;2022-07-17T21:00:36;0.2;0;0
57373;PMS7003;43964;53.890;25.340;2022-07-17T21:05:36;0.2;0;0
57373;PMS7003;43964;53.890;25.340;2022-07-17T21:10:36;0;0;0
57373;PMS7003;43964;53.890;25.340;2022-07-17T21:15:36;0;0;0
57373;PMS7003;43964;53.890;25.340;2022-07-17T21:20:36;0;0;0
57373;PMS7003;43964;53.890;25.340;2022-07-17T21:25:36;0.2;0;0
57373;PMS7003;43964;53.890;25.340;2022-07-17T21:30:36;0;0;0
57373;PMS7003;43964;53.890;25.340;2022-07-17T21:35:36;0;0;0
57373;PMS7003;43964;53.890;25.340;2022-07-17T21:40:36;0;0;0
57373;PMS7003;43964;53.890;25.340;2022-07-17T21:45:36;0.3;0;0
57373;PMS7003;43964;53.890;25.340;2022-07-17T21:50:36;0;0;0
57373;PMS7003;43964;53.890;25.340;2022-07-17T21:55:36;0;0;0
57373;PMS7003;43964;53.890;25.340;2022-07-17T22:00:36;0;0;0
57373;PMS7003;43964;53.890;25.340;2022-07-17T22:05:36;0.4;0.2;0
57373;PMS7003;43964;53.890;25.340;2022-07-17T22:10:36;0.2;0.2;0
57373;PMS7003;43964;53.890;25.340;2022-07-17T22:15:36;0.5;0.5;0
57373;PMS7003;43964;53.890;25.340;2022-07-17T22:20:36;0.4;0;0
57373;PMS7003;43964;53.890;25.340;2022-07-17T22:25:36;0;0;0
57373;PMS7003;43964;53.890;25.340;2022-07-17T22:30:36;0;0;0
57373;PMS7003;43964;53.890;25.340;2022-07-17T22:35:36;0.4;0.2;0
57373;PMS7003;43964;53.890;25.340;2022-07-17T22:40:36;0;0;0
57373;PMS7003;43964;53.890;25.340;2022-07-17T22:45:36;0.8;0.6;0.4
57373;PMS7003;43964;53.890;25.340;2022-07-17T22:50:36;0.6;0;0
57373;PMS7003;43964;53.890;25.340;2022-07-17T22:55:36;0.4;0;0
57373;PMS7003;43964;53.890;25.340;2022-07-17T23:00:36;0.2;0;0
57373;PMS7003;43964;53.890;25.340;2022-07-17T23:05:36;0.2;0;0
57373;PMS7003;43964;53.890;25.340;2022-07-17T23:10:36;0;0;0
57373;PMS7003;43964;53.890;25.340;2022-07-17T23:15:36;0;0;0
57373;PMS7003;43964;53.890;25.340;2022-07-17T23:20:36;0.6;0.4;0
57373;PMS7003;43964;53.890;25.340;2022-07-17T23:25:36;0.4;0.4;0
57373;PMS7003;43964;53.890;25.340;2022-07-17T23:30:36;0.8;0.6;0.2
57373;PMS7003;43964;53.890;25.340;2022-07-17T23:35:36;0.6;0.6;0.2
57373;PMS7003;43964;53.890;25.340;2022-07-17T23:40:36;0.6;0.6;0.2
57373;PMS7003;43964;53.890;25.340;2022-07-17T23:45:36;0.4;0.4;0
57373;PMS7003;43964;53.890;25.340;2022-07-17T23:50:36;0;0;0
57373;PMS7003;43964;53.890;25.340;2022-07-17T23:55:36;0;0;0
